Time;durP1;ratioP1;P1;durP2;ratioP2;P2;SDS_P1;SDS_P2;PMS_P1;PMS_P2;Temp;Humidity;BMP_temperature;BMP_pressure;BME280_temperature;BME280_humidity;BME280_pressure;Samples;Min_cycle;Max_cycle;Signal;HPM_P1;HPM_P2
2023/07/04 00:00:59;;;;;;;4.20;1.63;;;19.00;99.90;;;;;;5059751;28;20020;-88
2023/07/04 00:03:27;;;;;;;4.13;1.75;;;19.00;99.90;;;;;;5056546;28;20021;-88
2023/07/04 00:05:56;;;;;;;3.10;1.80;;;19.00;99.90;;;;;;5059109;28;20109;-88
2023/07/04 00:08:26;;;;;;;4.47;1.60;;;19.00;99.90;;;;;;5056266;28;20010;-88
2023/07/04 00:10:56;;;;;;;3.35;1.67;;;19.00;99.90;;;;;;5059120;28;20024;-88
2023/07/04 00:13:22;;;;;;;2.80;1.63;;;19.00;99.90;;;;;;5055099;28;20055;-88
2023/07/04 00:15:50;;;;;;;3.60;1.65;;;18.90;99.90;;;;;;5058448;28;20030;-87
2023/07/04 00:18:20;;;;;;;2.10;1.10;;;18.90;99.90;;;;;;5034929;28;20029;-87
2023/07/04 00:21:03;;;;;;;4.60;1.52;;;18.90;99.90;;;;;;5035827;28;20033;-87
2023/07/04 00:23:35;;;;;;;2.73;1.73;;;18.80;99.90;;;;;;5031077;28;20025;-88
2023/07/04 00:26:02;;;;;;;3.95;1.83;;;18.80;99.90;;;;;;5034362;28;20037;-88
2023/07/04 00:28:28;;;;;;;5.72;1.65;;;18.80;99.90;;;;;;5033751;28;20091;-88
2023/07/04 00:30:56;;;;;;;4.28;1.80;;;18.70;99.90;;;;;;5036601;28;20021;-88
2023/07/04 00:33:24;;;;;;;4.18;1.63;;;18.70;99.90;;;;;;5032626;28;20476;-88
2023/07/04 00:35:56;;;;;;;4.05;1.73;;;18.70;99.90;;;;;;5033808;28;20018;-88
2023/07/04 00:38:23;;;;;;;3.17;1.70;;;18.60;99.90;;;;;;5032750;28;20521;-88
2023/07/04 00:40:51;;;;;;;3.28;1.98;;;18.60;99.90;;;;;;5031681;28;20278;-88
2023/07/04 00:43:17;;;;;;;4.22;2.20;;;18.60;99.90;;;;;;5034632;28;20026;-88
2023/07/04 00:45:43;;;;;;;3.25;1.77;;;18.60;99.90;;;;;;5032411;28;20063;-87
2023/07/04 00:48:14;;;;;;;5.35;1.98;;;18.50;99.90;;;;;;5033001;28;20025;-87
2023/07/04 00:50:45;;;;;;;4.85;1.80;;;18.50;99.90;;;;;;5034883;28;20021;-88
2023/07/04 00:53:11;;;;;;;3.72;1.63;;;18.50;99.90;;;;;;5036516;28;20025;-88
2023/07/04 00:55:45;;;;;;;2.60;1.70;;;18.50;99.90;;;;;;5031412;28;20035;-88
2023/07/04 00:58:11;;;;;;;4.00;1.88;;;18.40;99.90;;;;;;5033720;28;20033;-87
2023/07/04 01:00:37;;;;;;;4.30;2.03;;;18.40;99.90;;;;;;5032434;28;20155;-87
2023/07/04 01:03:10;;;;;;;3.67;1.85;;;18.30;99.90;;;;;;5033306;28;20036;-88
2023/07/04 01:06:07;;;;;;;3.28;1.83;;;18.40;99.90;;;;;;5032260;28;20060;-88
2023/07/04 01:08:45;;;;;;;3.17;1.90;;;18.30;99.90;;;;;;5028262;28;20033;-88
2023/07/04 01:11:22;;;;;;;2.85;1.63;;;18.30;99.90;;;;;;5033010;28;20028;-88
2023/07/04 01:13:47;;;;;;;2.75;1.77;;;18.20;99.90;;;;;;5033536;28;20022;-88
2023/07/04 01:16:16;;;;;;;3.08;1.80;;;18.20;99.90;;;;;;5035362;28;20044;-87
2023/07/04 01:18:44;;;;;;;3.33;1.63;;;18.20;99.90;;;;;;5030481;28;20041;-87
2023/07/04 01:21:12;;;;;;;4.20;1.73;;;18.20;99.90;;;;;;5034248;28;20029;-88
2023/07/04 01:24:12;;;;;;;4.38;2.25;;;18.10;99.90;;;;;;5043340;28;20044;-88
2023/07/04 01:26:42;;;;;;;3.55;1.55;;;18.10;99.90;;;;;;5056496;28;20025;-88
2023/07/04 01:29:11;;;;;;;4.18;1.55;;;18.20;99.90;;;;;;5055134;28;20049;-88
2023/07/04 01:31:40;;;;;;;4.78;1.80;;;18.10;99.90;;;;;;5059233;28;20040;-88
2023/07/04 01:34:08;;;;;;;5.07;1.80;;;18.10;99.90;;;;;;5047482;28;20056;-88
2023/07/04 01:36:37;;;;;;;4.50;2.08;;;18.10;99.90;;;;;;5033829;28;20433;-87
2023/07/04 01:39:03;;;;;;;7.78;2.00;;;18.10;99.90;;;;;;5033326;28;20030;-88
2023/07/04 01:41:29;;;;;;;4.72;2.15;;;18.10;99.90;;;;;;5035319;28;20029;-87
2023/07/04 01:44:00;;;;;;;2.92;1.83;;;18.10;99.90;;;;;;5036961;28;20419;-87
2023/07/04 01:46:25;;;;;;;3.83;1.85;;;18.10;99.90;;;;;;5036174;28;20021;-87
2023/07/04 01:48:52;;;;;;;3.83;1.80;;;18.10;99.90;;;;;;5034053;28;20020;-87
2023/07/04 01:51:39;;;;;;;3.60;1.85;;;18.10;99.90;;;;;;5032409;28;20093;-86
2023/07/04 01:54:08;;;;;;;4.38;1.98;;;18.10;99.90;;;;;;5034555;28;20063;-87
2023/07/04 01:56:36;;;;;;;2.53;1.35;;;18.20;99.90;;;;;;5005910;28;20036;-87
2023/07/04 01:59:03;;;;;;;3.17;1.60;;;18.20;99.90;;;;;;5032939;28;20112;-87
2023/07/04 02:01:28;;;;;;;4.50;1.67;;;18.20;99.90;;;;;;5035593;28;20036;-87
2023/07/04 02:03:54;;;;;;;3.55;1.60;;;18.20;99.90;;;;;;5032119;28;20044;-87
2023/07/04 02:06:20;;;;;;;5.30;1.85;;;18.20;99.90;;;;;;5031194;28;20108;-87
2023/07/04 02:08:45;;;;;;;5.45;2.22;;;18.20;99.90;;;;;;5029932;28;20048;-87
2023/07/04 02:11:12;;;;;;;3.55;1.65;;;18.20;99.90;;;;;;5031386;28;20137;-86
2023/07/04 02:13:39;;;;;;;3.40;1.85;;;18.20;99.90;;;;;;5035768;28;20096;-87
2023/07/04 02:16:05;;;;;;;4.10;1.65;;;18.20;99.90;;;;;;5030932;28;20036;-87
2023/07/04 02:18:31;;;;;;;4.28;1.77;;;18.10;99.90;;;;;;5032976;28;20473;-87
2023/07/04 02:20:57;;;;;;;2.88;1.77;;;18.10;99.90;;;;;;5031228;28;20029;-87
2023/07/04 02:23:22;;;;;;;3.03;1.60;;;18.10;99.90;;;;;;5032001;28;20079;-86
2023/07/04 02:25:48;;;;;;;3.25;1.60;;;18.00;99.90;;;;;;5043861;28;20033;-86
2023/07/04 02:28:14;;;;;;;3.15;1.33;;;18.00;99.90;;;;;;5036452;28;20398;-86
2023/07/04 02:30:40;;;;;;;2.60;1.70;;;18.00;99.90;;;;;;5028874;28;20495;-86
2023/07/04 02:33:05;;;;;;;2.35;1.50;;;18.00;99.90;;;;;;5029692;28;20021;-86
2023/07/04 02:35:32;;;;;;;2.40;1.23;;;17.90;99.90;;;;;;5032782;28;20055;-87
2023/07/04 02:37:58;;;;;;;1.92;1.27;;;17.90;99.90;;;;;;5013195;28;20087;-86
2023/07/04 02:40:24;;;;;;;2.22;1.25;;;17.90;99.90;;;;;;5045631;28;20027;-87
2023/07/04 02:42:49;;;;;;;2.28;1.48;;;17.90;99.90;;;;;;5030423;28;20022;-87
2023/07/04 02:45:15;;;;;;;2.70;0.95;;;17.90;99.90;;;;;;5029093;28;20692;-86
2023/07/04 02:47:41;;;;;;;3.05;1.40;;;17.80;99.90;;;;;;5046882;28;20524;-87
2023/07/04 02:50:07;;;;;;;2.50;1.27;;;17.80;99.90;;;;;;5040190;28;20055;-87
2023/07/04 02:52:32;;;;;;;2.85;1.52;;;17.80;99.90;;;;;;5031080;28;20501;-86
2023/07/04 02:54:58;;;;;;;5.50;1.83;;;17.80;99.90;;;;;;5030094;28;20038;-87
2023/07/04 02:57:24;;;;;;;3.45;1.40;;;17.70;99.90;;;;;;5033203;28;20370;-86
2023/07/04 02:59:50;;;;;;;4.88;1.95;;;17.70;99.90;;;;;;5029522;28;20033;-86
2023/07/04 03:02:15;;;;;;;2.42;1.30;;;17.70;99.90;;;;;;5034855;28;20034;-86
2023/07/04 03:04:41;;;;;;;5.13;1.00;;;17.70;99.90;;;;;;5049371;28;20030;-86
2023/07/04 03:07:07;;;;;;;4.88;1.60;;;17.60;99.90;;;;;;5037121;28;20026;-86
2023/07/04 03:09:33;;;;;;;2.28;1.30;;;17.60;99.90;;;;;;5031563;28;20410;-86
2023/07/04 03:11:59;;;;;;;2.63;1.10;;;17.50;99.90;;;;;;5029354;28;20030;-87
2023/07/04 03:14:25;;;;;;;3.03;1.20;;;17.50;99.90;;;;;;5043015;28;20033;-87
2023/07/04 03:16:51;;;;;;;2.78;0.98;;;17.50;99.90;;;;;;5033761;28;20028;-88
2023/07/04 03:19:17;;;;;;;3.25;1.52;;;17.40;99.90;;;;;;5028915;28;20104;-87
2023/07/04 03:21:42;;;;;;;2.45;1.33;;;17.40;99.90;;;;;;5029528;28;20101;-86
2023/07/04 03:24:08;;;;;;;2.13;1.30;;;17.40;99.90;;;;;;5031810;28;20028;-87
2023/07/04 03:26:34;;;;;;;6.15;1.30;;;17.40;99.90;;;;;;5031382;28;20568;-87
2023/07/04 03:29:01;;;;;;;2.50;1.23;;;17.40;99.90;;;;;;5031702;28;20025;-87
2023/07/04 03:31:26;;;;;;;3.78;1.35;;;17.40;99.90;;;;;;5031900;28;20482;-87
2023/07/04 03:33:54;;;;;;;2.47;1.10;;;17.30;99.90;;;;;;5033353;28;20025;-87
2023/07/04 03:36:20;;;;;;;1.70;1.00;;;17.30;99.90;;;;;;5033197;28;20532;-87
2023/07/04 03:38:46;;;;;;;2.97;1.50;;;17.40;99.90;;;;;;5029548;28;20033;-87
2023/07/04 03:41:12;;;;;;;3.30;1.27;;;17.30;99.90;;;;;;5031894;28;20037;-87
2023/07/04 03:43:39;;;;;;;1.95;1.48;;;17.30;99.90;;;;;;5031756;28;20163;-87
2023/07/04 03:46:05;;;;;;;3.42;1.27;;;17.40;99.90;;;;;;5032058;28;20034;-87
2023/07/04 03:48:31;;;;;;;3.80;1.55;;;17.40;99.90;;;;;;5031160;28;20017;-88
2023/07/04 03:50:57;;;;;;;3.92;1.85;;;17.30;99.90;;;;;;5023249;28;20502;-87
2023/07/04 03:53:22;;;;;;;2.70;1.75;;;17.30;99.90;;;;;;5030615;28;20030;-87
2023/07/04 03:55:49;;;;;;;2.47;1.30;;;17.40;99.90;;;;;;5032019;28;20540;-87
2023/07/04 03:58:23;;;;;;;2.85;1.45;;;17.40;99.90;;;;;;5032764;28;20497;-87
2023/07/04 04:00:50;;;;;;;1.80;1.50;;;17.40;99.90;;;;;;5032093;28;20028;-87
2023/07/04 04:03:16;;;;;;;7.57;2.00;;;17.40;99.90;;;;;;5056064;22;20045;-77
2023/07/04 04:05:43;;;;;;;1.92;1.30;;;17.40;99.90;;;;;;5050776;28;20026;-76
2023/07/04 04:08:09;;;;;;;2.63;1.35;;;17.40;99.90;;;;;;5049138;28;20140;-76
2023/07/04 04:10:35;;;;;;;1.55;1.00;;;17.40;99.90;;;;;;5047980;28;20032;-76
2023/07/04 04:13:00;;;;;;;2.28;1.30;;;17.40;99.90;;;;;;5048977;28;20021;-76
2023/07/04 04:15:27;;;;;;;2.63;1.55;;;17.40;99.90;;;;;;5053079;28;20029;-77
2023/07/04 04:17:54;;;;;;;3.70;1.42;;;17.50;99.90;;;;;;5049527;28;20436;-77
2023/07/04 04:20:20;;;;;;;3.03;1.42;;;17.50;99.90;;;;;;5044960;28;20021;-77
2023/07/04 04:22:47;;;;;;;2.80;1.67;;;17.50;99.90;;;;;;5051462;28;20048;-77
2023/07/04 04:25:14;;;;;;;5.05;1.33;;;17.50;99.90;;;;;;5049314;28;20029;-77
2023/07/04 04:27:40;;;;;;;1.92;1.40;;;17.50;99.90;;;;;;5049926;28;20032;-77
2023/07/04 04:30:08;;;;;;;1.95;1.42;;;17.60;99.90;;;;;;5052777;28;20033;-77
2023/07/04 04:32:35;;;;;;;2.35;1.33;;;17.60;99.90;;;;;;5068780;28;20135;-78
2023/07/04 04:35:01;;;;;;;5.10;2.00;;;17.60;99.90;;;;;;5052482;28;20505;-77
2023/07/04 04:37:27;;;;;;;5.55;1.67;;;17.70;99.90;;;;;;5057287;28;20013;-77
2023/07/04 04:39:52;;;;;;;2.55;1.60;;;17.70;99.90;;;;;;5055274;28;20029;-77
2023/07/04 04:42:23;;;;;;;2.83;1.38;;;17.80;99.90;;;;;;5055874;28;20032;-78
2023/07/04 04:44:53;;;;;;;3.33;1.55;;;17.80;99.90;;;;;;5053721;28;20432;-69
2023/07/04 04:47:22;;;;;;;2.47;1.45;;;17.90;99.90;;;;;;5053338;28;20100;-69
2023/07/04 04:49:48;;;;;;;3.20;1.40;;;17.90;99.90;;;;;;5051057;28;20100;-69
2023/07/04 04:52:14;;;;;;;2.13;1.38;;;17.90;99.90;;;;;;5050421;28;20048;-70
2023/07/04 04:54:39;;;;;;;3.13;1.40;;;18.00;99.90;;;;;;5050175;28;20009;-68
2023/07/04 04:57:06;;;;;;;3.30;1.90;;;18.00;99.90;;;;;;5054181;28;20017;-68
2023/07/04 04:59:31;;;;;;;2.67;1.35;;;18.00;99.90;;;;;;5044015;28;20057;-68
2023/07/04 05:01:57;;;;;;;3.60;1.98;;;18.10;99.90;;;;;;5058773;28;20383;-68
2023/07/04 05:04:23;;;;;;;2.67;1.30;;;18.10;99.90;;;;;;5054646;28;20534;-68
2023/07/04 05:06:49;;;;;;;6.82;2.10;;;18.10;99.90;;;;;;5054309;28;20017;-68
2023/07/04 05:09:15;;;;;;;2.25;1.20;;;18.20;99.90;;;;;;5050494;28;20056;-68
2023/07/04 05:11:40;;;;;;;4.63;1.50;;;18.20;99.90;;;;;;5057592;28;20029;-68
2023/07/04 05:14:08;;;;;;;2.40;1.73;;;18.20;99.90;;;;;;5054681;28;20028;-69
2023/07/04 05:16:34;;;;;;;3.75;1.73;;;18.20;99.90;;;;;;5053880;28;20116;-68
2023/07/04 05:19:00;;;;;;;7.47;1.92;;;18.30;99.90;;;;;;5053515;28;20039;-69
2023/07/04 05:21:25;;;;;;;3.80;1.80;;;18.30;99.90;;;;;;5048883;28;20025;-70
2023/07/04 05:23:52;;;;;;;6.15;2.30;;;18.40;99.90;;;;;;5052003;28;20040;-69
2023/07/04 05:26:27;;;;;;;3.20;1.60;;;18.40;99.90;;;;;;5050508;28;20025;-69
2023/07/04 05:28:56;;;;;;;4.05;1.65;;;18.50;99.90;;;;;;5049613;28;20383;-70
2023/07/04 05:31:25;;;;;;;4.22;1.98;;;18.60;99.90;;;;;;5048527;28;20027;-70
2023/07/04 05:33:55;;;;;;;3.17;1.80;;;18.70;99.90;;;;;;5041955;28;20025;-70
2023/07/04 05:36:23;;;;;;;6.65;1.75;;;18.80;99.90;;;;;;5045159;28;20061;-68
2023/07/04 05:38:50;;;;;;;5.22;1.70;;;18.90;99.90;;;;;;5049913;28;20076;-70
2023/07/04 05:41:18;;;;;;;3.38;1.67;;;19.00;99.90;;;;;;5046103;28;20054;-70
2023/07/04 05:43:44;;;;;;;5.82;2.03;;;19.10;99.90;;;;;;5048363;28;20044;-69
2023/07/04 05:46:11;;;;;;;6.45;2.30;;;19.20;99.90;;;;;;5053641;28;20040;-69
2023/07/04 05:48:38;;;;;;;6.80;2.33;;;19.30;99.90;;;;;;5047350;28;20064;-69
2023/07/04 05:51:06;;;;;;;5.88;1.55;;;19.40;99.90;;;;;;5052677;28;20036;-69
2023/07/04 05:53:33;;;;;;;7.20;2.13;;;19.40;99.90;;;;;;5053904;28;20017;-69
2023/07/04 05:56:14;;;;;;;3.00;1.63;;;19.50;99.90;;;;;;5052503;28;20102;-69
2023/07/04 05:58:42;;;;;;;4.90;1.80;;;19.50;99.90;;;;;;5045523;28;20672;-69
2023/07/04 06:01:14;;;;;;;7.13;2.50;;;19.50;99.90;;;;;;5046498;28;20029;-68
2023/07/04 06:03:40;;;;;;;4.95;1.58;;;19.50;99.90;;;;;;5047374;28;20558;-67
2023/07/04 06:06:14;;;;;;;4.95;1.98;;;19.50;99.90;;;;;;5047590;28;20081;-68
2023/07/04 06:08:41;;;;;;;6.55;2.15;;;19.60;99.90;;;;;;5046644;28;20017;-69
2023/07/04 06:11:07;;;;;;;6.30;2.35;;;19.60;99.90;;;;;;5049868;28;20029;-79
2023/07/04 06:13:34;;;;;;;4.03;2.15;;;19.60;99.90;;;;;;5051111;28;20379;-78
2023/07/04 06:16:02;;;;;;;4.50;2.22;;;19.70;99.90;;;;;;5052671;28;20044;-79
2023/07/04 06:18:28;;;;;;;8.90;2.95;;;19.70;99.90;;;;;;5054147;28;20376;-78
2023/07/04 06:21:24;;;;;;;3.35;1.80;;;19.80;99.90;;;;;;5051669;28;20095;-80
2023/07/04 06:23:54;;;;;;;3.33;2.03;;;19.80;99.90;;;;;;5050554;28;20033;-81
2023/07/04 06:26:20;;;;;;;5.45;1.73;;;19.80;99.90;;;;;;5052755;28;20036;-81
2023/07/04 06:28:45;;;;;;;6.40;2.03;;;19.90;99.90;;;;;;5052597;28;20029;-79
2023/07/04 06:31:16;;;;;;;6.43;1.63;;;19.90;99.90;;;;;;5050298;28;20101;-80
2023/07/04 06:33:43;;;;;;;3.30;1.90;;;19.90;99.90;;;;;;5053207;28;20025;-81
2023/07/04 06:36:11;;;;;;;6.07;1.83;;;20.00;99.90;;;;;;5054868;28;20037;-82
2023/07/04 06:38:37;;;;;;;7.22;2.05;;;20.00;99.90;;;;;;5054483;28;20029;-80
2023/07/04 06:41:11;;;;;;;3.45;1.63;;;20.10;99.90;;;;;;5053286;28;20079;-81
2023/07/04 06:43:39;;;;;;;3.67;1.67;;;20.10;99.90;;;;;;5055709;28;20040;-79
2023/07/04 06:46:05;;;;;;;2.78;1.75;;;20.10;99.90;;;;;;5054388;28;20032;-81
2023/07/04 06:48:31;;;;;;;7.82;2.17;;;20.20;99.90;;;;;;5057082;28;20009;-80
2023/07/04 06:51:10;;;;;;;3.47;1.80;;;20.30;99.90;;;;;;5053794;28;20021;-81
2023/07/04 06:53:36;;;;;;;5.45;1.83;;;20.40;99.90;;;;;;5047465;28;20014;-80
2023/07/04 06:56:22;;;;;;;3.38;1.83;;;20.40;99.90;;;;;;5050702;28;20155;-81
2023/07/04 06:58:50;;;;;;;3.03;1.83;;;20.50;99.90;;;;;;5050940;28;20009;-80
2023/07/04 07:01:17;;;;;;;6.18;1.52;;;20.70;99.90;;;;;;5057588;28;20546;-80
2023/07/04 07:03:43;;;;;;;4.05;1.65;;;20.70;99.90;;;;;;5059595;28;20080;-81
2023/07/04 07:06:10;;;;;;;5.15;1.75;;;20.90;99.90;;;;;;5053011;28;20052;-79
2023/07/04 07:08:36;;;;;;;3.90;1.70;;;21.00;99.90;;;;;;5054603;28;20100;-80
2023/07/04 07:11:05;;;;;;;3.65;1.38;;;21.20;99.90;;;;;;5053105;28;20021;-78
2023/07/04 07:13:31;;;;;;;4.53;1.70;;;21.30;99.90;;;;;;5053769;28;20025;-81
2023/07/04 07:16:20;;;;;;;6.53;1.73;;;21.40;99.90;;;;;;5053693;28;20357;-78
2023/07/04 07:18:47;;;;;;;3.00;1.60;;;21.50;99.90;;;;;;5050076;28;20720;-78
2023/07/04 07:21:18;;;;;;;5.25;1.92;;;21.50;99.90;;;;;;5067817;28;20043;-79
2023/07/04 07:23:44;;;;;;;5.10;2.13;;;21.60;99.90;;;;;;5050631;28;20033;-79
2023/07/04 07:26:11;;;;;;;3.25;1.70;;;21.70;99.90;;;;;;5053210;28;20036;-82
2023/07/04 07:28:39;;;;;;;2.70;1.38;;;21.70;99.90;;;;;;5070715;28;20021;-81
2023/07/04 07:31:14;;;;;;;5.22;1.90;;;21.70;99.90;;;;;;5055199;28;20037;-82
2023/07/04 07:33:45;;;;;;;3.90;1.80;;;21.70;99.90;;;;;;5068646;28;20021;-82
2023/07/04 07:36:18;;;;;;;5.28;2.15;;;21.70;99.90;;;;;;5052630;28;20472;-80
2023/07/04 07:38:44;;;;;;;4.78;1.70;;;21.70;99.70;;;;;;5051106;28;20102;-79
2023/07/04 07:41:09;;;;;;;3.50;1.63;;;21.70;99.60;;;;;;5052895;28;20033;-80
2023/07/04 07:43:38;;;;;;;5.22;1.65;;;21.80;99.50;;;;;;5052940;28;20043;-81
2023/07/04 07:46:09;;;;;;;6.22;2.10;;;21.80;99.40;;;;;;5051739;28;20013;-80
2023/07/04 07:48:35;;;;;;;4.75;2.13;;;21.80;98.90;;;;;;5051422;28;20025;-80
2023/07/04 07:51:01;;;;;;;6.80;1.95;;;21.80;98.90;;;;;;5054174;28;20539;-80
2023/07/04 07:53:27;;;;;;;6.75;2.17;;;21.90;98.80;;;;;;5053518;28;20099;-79
2023/07/04 07:55:52;;;;;;;3.92;1.77;;;22.00;98.10;;;;;;5052827;28;20056;-80
2023/07/04 07:58:18;;;;;;;6.55;2.22;;;22.00;97.60;;;;;;5055983;28;20025;-80
2023/07/04 08:00:43;;;;;;;4.40;2.38;;;22.00;96.80;;;;;;5053866;28;20035;-79
2023/07/04 08:03:09;;;;;;;7.07;2.55;;;22.10;97.10;;;;;;5058275;28;20448;-80
2023/07/04 08:05:40;;;;;;;9.57;2.20;;;22.20;96.40;;;;;;5056486;28;20034;-79
2023/07/04 08:08:06;;;;;;;7.53;2.40;;;22.20;95.70;;;;;;5057816;28;20026;-79
2023/07/04 08:10:39;;;;;;;5.25;2.13;;;22.30;95.80;;;;;;5058780;28;20018;-80
2023/07/04 08:13:06;;;;;;;6.68;2.72;;;22.40;95.50;;;;;;5060058;28;20025;-81
2023/07/04 08:15:32;;;;;;;6.70;2.38;;;22.40;95.40;;;;;;5063035;28;20033;-81
2023/07/04 08:18:03;;;;;;;6.53;2.20;;;22.50;95.20;;;;;;5057345;28;20021;-79
2023/07/04 08:20:29;;;;;;;5.68;1.90;;;22.60;94.70;;;;;;5061135;28;20060;-80
2023/07/04 08:22:54;;;;;;;4.38;1.70;;;22.70;94.40;;;;;;5060883;28;20060;-80
2023/07/04 08:25:20;;;;;;;6.10;2.15;;;22.70;94.20;;;;;;5064319;28;20055;-80
2023/07/04 08:27:45;;;;;;;5.78;2.17;;;22.80;93.50;;;;;;5058663;28;20033;-78
2023/07/04 08:30:11;;;;;;;9.65;2.47;;;22.90;93.00;;;;;;5052862;28;20379;-76
2023/07/04 08:32:37;;;;;;;4.57;2.03;;;23.00;92.50;;;;;;5055584;28;20029;-78
2023/07/04 08:35:03;;;;;;;6.05;2.20;;;23.00;91.70;;;;;;5053297;28;20028;-77
2023/07/04 08:37:28;;;;;;;6.40;2.13;;;23.10;90.80;;;;;;5051017;28;20021;-77
2023/07/04 08:39:55;;;;;;;5.80;2.47;;;23.10;90.80;;;;;;5050475;28;20123;-77
2023/07/04 08:42:24;;;;;;;6.57;2.33;;;23.20;90.70;;;;;;5054659;28;20515;-78
2023/07/04 08:44:52;;;;;;;5.40;2.53;;;23.30;90.70;;;;;;5054541;28;20084;-77
2023/07/04 08:47:25;;;;;;;6.65;2.53;;;23.40;90.60;;;;;;5052549;28;20517;-77
2023/07/04 08:50:11;;;;;;;7.28;1.95;;;23.40;89.90;;;;;;5053421;28;20029;-76
2023/07/04 08:52:39;;;;;;;5.07;2.60;;;23.50;89.70;;;;;;5052764;28;20373;-77
2023/07/04 08:55:11;;;;;;;8.10;2.70;;;23.50;88.70;;;;;;5055103;28;20483;-76
2023/07/04 08:58:00;;;;;;;5.97;2.75;;;23.50;88.40;;;;;;5052785;28;20025;-77
2023/07/04 09:00:35;;;;;;;6.20;2.78;;;23.50;88.20;;;;;;5046114;28;20048;-78
2023/07/04 09:03:07;;;;;;;5.85;2.50;;;23.60;86.80;;;;;;5051379;28;20032;-78
2023/07/04 09:05:35;;;;;;;6.72;2.50;;;23.80;86.80;;;;;;5055991;28;20029;-77
2023/07/04 09:08:43;;;;;;;8.70;2.60;;;23.90;86.30;;;;;;5052885;28;20017;-77
2023/07/04 09:11:11;;;;;;;7.80;3.47;;;23.90;84.80;;;;;;5052974;28;20037;-77
2023/07/04 09:13:43;;;;;;;5.63;2.65;;;23.90;84.20;;;;;;5054118;28;20049;-78
2023/07/04 09:16:38;;;;;;;6.97;2.40;;;24.00;83.60;;;;;;5053182;28;20119;-77
2023/07/04 09:19:12;;;;;;;7.32;3.40;;;24.00;82.70;;;;;;5062473;28;20021;-78
2023/07/04 09:21:37;;;;;;;12.13;3.17;;;24.00;82.20;;;;;;5061780;28;20047;-78
2023/07/04 09:24:04;;;;;;;6.10;2.40;;;24.10;81.80;;;;;;5064093;28;20103;-77
2023/07/04 09:26:35;;;;;;;6.28;2.80;;;24.20;81.40;;;;;;5075038;28;20443;-77
2023/07/04 09:29:02;;;;;;;6.93;2.72;;;24.20;81.80;;;;;;5065096;28;20032;-82
2023/07/04 09:31:32;;;;;;;5.55;3.13;;;24.10;82.50;;;;;;5055131;28;20128;-79
2023/07/04 09:34:02;;;;;;;7.30;2.42;;;24.10;81.90;;;;;;5054090;28;20503;-77
2023/07/04 09:36:33;;;;;;;7.25;3.05;;;24.10;81.60;;;;;;5058016;28;20033;-82
2023/07/04 09:39:04;;;;;;;8.88;3.13;;;24.00;81.80;;;;;;5060297;28;20093;-82
2023/07/04 09:41:36;;;;;;;5.97;2.15;;;24.00;82.00;;;;;;5056877;28;20020;-83
2023/07/04 09:44:19;;;;;;;5.60;2.47;;;23.90;81.80;;;;;;5054381;28;20876;-81
2023/07/04 09:46:52;;;;;;;8.13;2.63;;;23.80;83.00;;;;;;5051538;28;20030;-80
2023/07/04 09:49:30;;;;;;;8.90;3.20;;;23.80;83.40;;;;;;5051417;28;20023;-81
2023/07/04 09:52:12;;;;;;;7.28;3.28;;;23.90;82.00;;;;;;5058968;28;20048;-83
2023/07/04 09:54:39;;;;;;;8.60;2.60;;;23.90;81.60;;;;;;5060068;28;20021;-81
2023/07/04 09:57:27;;;;;;;5.30;2.40;;;23.90;81.60;;;;;;5058444;28;20037;-81
2023/07/04 09:59:54;;;;;;;7.28;2.78;;;24.00;81.70;;;;;;5060554;28;20025;-82
2023/07/04 10:02:25;;;;;;;5.28;2.72;;;24.00;81.70;;;;;;5062619;28;20470;-82
2023/07/04 10:04:52;;;;;;;7.80;2.83;;;24.10;81.10;;;;;;5061448;28;20246;-81
2023/07/04 10:07:23;;;;;;;6.20;2.80;;;24.10;81.10;;;;;;5057954;28;20028;-80
2023/07/04 10:09:59;;;;;;;5.30;2.47;;;24.10;81.00;;;;;;5056016;28;20471;-81
2023/07/04 10:12:27;;;;;;;5.10;2.70;;;24.20;81.00;;;;;;5057066;28;20041;-81
2023/07/04 10:14:56;;;;;;;6.57;2.42;;;24.20;80.70;;;;;;5060033;28;20044;-81
2023/07/04 10:17:35;;;;;;;7.63;2.70;;;24.30;80.40;;;;;;5058099;28;20115;-81
2023/07/04 10:20:08;;;;;;;4.65;2.40;;;24.30;80.30;;;;;;5055900;28;20666;-79
2023/07/04 10:22:42;;;;;;;6.22;2.50;;;24.30;80.50;;;;;;5056626;28;20021;-78
2023/07/04 10:25:12;;;;;;;;;;;24.30;80.70;;;;;;5058054;28;20037;-78
2023/07/04 10:27:41;;;;;;;5.53;2.65;;;24.30;81.20;;;;;;5058100;28;20441;-81
2023/07/04 10:30:11;;;;;;;6.32;2.70;;;24.40;80.90;;;;;;5070063;28;21113;-78
2023/07/04 10:32:49;;;;;;;4.05;2.40;;;24.20;80.10;;;;;;5053812;28;20017;-79
2023/07/04 10:35:19;;;;;;;6.70;2.88;;;24.20;80.70;;;;;;5052667;28;20044;-82
2023/07/04 10:37:57;;;;;;;6.80;2.35;;;24.20;79.90;;;;;;5050243;28;20545;-79
2023/07/04 10:40:24;;;;;;;3.55;2.35;;;24.20;80.40;;;;;;5069334;28;20021;-80
2023/07/04 10:43:03;;;;;;;4.93;2.42;;;24.10;79.80;;;;;;5051807;28;20028;-80
2023/07/04 10:45:31;;;;;;;8.05;2.63;;;24.10;79.70;;;;;;5051171;28;20107;-80
2023/07/04 10:48:04;;;;;;;6.13;2.45;;;23.90;80.00;;;;;;5050646;28;20047;-79
2023/07/04 10:50:56;;;;;;;5.63;2.35;;;23.80;80.20;;;;;;5050031;28;20056;-82
2023/07/04 10:53:22;;;;;;;5.75;2.03;;;23.80;80.40;;;;;;5052664;28;20081;-81
2023/07/04 10:56:06;;;;;;;4.93;2.47;;;23.80;79.40;;;;;;5054277;28;20120;-80
2023/07/04 10:58:38;;;;;;;4.13;2.22;;;23.80;79.30;;;;;;5052424;28;20024;-81
2023/07/04 11:01:16;;;;;;;5.32;2.17;;;23.80;79.90;;;;;;5050266;28;20025;-81
2023/07/04 11:04:08;;;;;;;7.18;2.38;;;23.90;79.90;;;;;;5055674;28;20105;-80
2023/07/04 11:06:43;;;;;;;8.02;2.60;;;23.90;79.80;;;;;;5051970;28;20051;-81
2023/07/04 11:09:17;;;;;;;3.45;2.00;;;23.90;79.70;;;;;;5051513;28;20551;-81
2023/07/04 11:11:47;;;;;;;3.75;2.40;;;24.00;79.20;;;;;;5054018;28;20025;-81
2023/07/04 11:14:20;;;;;;;5.38;2.40;;;24.10;79.30;;;;;;5053599;28;21081;-80
2023/07/04 11:16:46;;;;;;;4.07;2.00;;;24.10;79.20;;;;;;5050557;28;20033;-79
2023/07/04 11:19:21;;;;;;;6.65;2.67;;;24.20;78.20;;;;;;5061283;28;20037;-81
2023/07/04 11:22:00;;;;;;;3.78;2.47;;;24.30;77.20;;;;;;5061070;28;20025;-80
2023/07/04 11:24:33;;;;;;;5.15;2.40;;;24.50;77.40;;;;;;5057739;28;20048;-80
2023/07/04 11:27:01;;;;;;;6.43;2.25;;;24.60;77.80;;;;;;5059466;28;20033;-81
2023/07/04 11:29:49;;;;;;;5.25;2.25;;;24.70;77.50;;;;;;5053835;28;20037;-81
2023/07/04 11:32:37;;;;;;;2.92;1.92;;;24.90;76.40;;;;;;5057567;28;20033;-79
2023/07/04 11:35:13;;;;;;;6.25;2.10;;;24.90;75.20;;;;;;5052324;28;20139;-81
2023/07/04 11:37:51;;;;;;;6.63;2.45;;;25.00;75.20;;;;;;5059642;28;20017;-82
2023/07/04 11:40:26;;;;;;;4.90;2.10;;;25.20;75.30;;;;;;5058051;28;20143;-81
2023/07/04 11:42:55;;;;;;;3.65;2.38;;;25.30;74.40;;;;;;5058739;28;20047;-79
2023/07/04 11:45:25;;;;;;;6.50;2.47;;;25.30;74.30;;;;;;5055953;28;20268;-78
2023/07/04 11:48:04;;;;;;;5.20;2.85;;;25.30;74.10;;;;;;5059118;28;20033;-79
2023/07/04 11:50:43;;;;;;;4.35;2.40;;;25.10;74.30;;;;;;5061486;28;20537;-82
2023/07/04 11:53:16;;;;;;;8.02;2.03;;;25.10;74.50;;;;;;5062808;28;20116;-81
2023/07/04 11:55:42;;;;;;;4.35;2.22;;;25.20;74.40;;;;;;5060708;28;20020;-81
2023/07/04 11:58:07;;;;;;;5.20;2.00;;;25.30;74.10;;;;;;5061684;28;20172;-80
2023/07/04 12:00:37;;;;;;;8.10;1.95;;;25.40;74.30;;;;;;5066688;28;20021;-84
2023/07/04 12:03:17;;;;;;;5.70;2.65;;;25.60;72.60;;;;;;5060016;28;20036;-81
2023/07/04 12:05:52;;;;;;;4.50;2.13;;;25.60;72.00;;;;;;5082389;28;20109;-83
2023/07/04 12:08:41;;;;;;;3.88;1.92;;;25.70;72.90;;;;;;5057058;28;20063;-80
2023/07/04 12:11:18;;;;;;;5.38;2.00;;;25.70;72.50;;;;;;5051367;28;20707;-83
2023/07/04 12:13:44;;;;;;;3.72;2.00;;;25.80;72.80;;;;;;5056370;28;20021;-85
2023/07/04 12:16:10;;;;;;;3.25;1.85;;;25.80;73.10;;;;;;5076942;28;20033;-83
2023/07/04 12:18:39;;;;;;;4.55;2.30;;;25.70;72.50;;;;;;5060196;28;20032;-83
2023/07/04 12:21:05;;;;;;;3.67;1.88;;;25.70;72.90;;;;;;5047366;22;20043;-83
2023/07/04 12:23:31;;;;;;;3.05;1.67;;;25.70;72.70;;;;;;5014045;28;20022;-84
2023/07/04 12:25:59;;;;;;;4.15;1.80;;;25.70;73.00;;;;;;5011284;28;20446;-86
2023/07/04 12:28:27;;;;;;;4.25;2.25;;;25.60;72.70;;;;;;5013889;28;20470;-83
2023/07/04 12:31:02;;;;;;;4.53;2.38;;;25.60;73.00;;;;;;5009100;28;20026;-83
2023/07/04 12:33:31;;;;;;;3.97;2.10;;;25.40;72.60;;;;;;5011795;28;20026;-84
2023/07/04 12:36:09;;;;;;;4.90;2.90;;;25.40;73.30;;;;;;5016717;28;20049;-84
2023/07/04 12:38:48;;;;;;;6.75;2.30;;;25.50;73.60;;;;;;5012877;28;20037;-83
2023/07/04 12:41:20;;;;;;;4.85;2.20;;;25.60;73.10;;;;;;5030506;28;20077;-83
2023/07/04 12:43:52;;;;;;;5.35;2.08;;;25.60;72.90;;;;;;5028287;28;20041;-85
2023/07/04 12:46:22;;;;;;;3.67;2.10;;;25.60;72.70;;;;;;5013113;28;20050;-83
2023/07/04 12:48:48;;;;;;;4.47;2.28;;;25.60;73.00;;;;;;5018021;28;20032;-85
2023/07/04 12:51:17;;;;;;;4.10;2.10;;;25.70;73.10;;;;;;5015390;28;20687;-85
2023/07/04 12:53:45;;;;;;;3.17;2.08;;;25.70;72.30;;;;;;5014195;28;20026;-85
2023/07/04 12:56:14;;;;;;;3.65;2.03;;;25.80;72.50;;;;;;5017062;28;20411;-86
2023/07/04 12:58:48;;;;;;;3.25;1.85;;;25.90;72.80;;;;;;5015557;28;20123;-86
2023/07/04 13:01:35;;;;;;;3.20;1.90;;;25.80;72.10;;;;;;5015446;28;20490;-84